Time;durP1;ratioP1;P1;durP2;ratioP2;P2;SDS_P1;SDS_P2;PMS_P1;PMS_P2;Temp;Humidity;BMP_temperature;BMP_pressure;BME280_temperature;BME280_humidity;BME280_pressure;Samples;Min_cycle;Max_cycle;Signal;HPM_P1;HPM_P2
2022/06/02 00:00:56;;;;;;;7.03;6.32;;;13.60;99.90;;;;;;2097871;28;20028;-70
2022/06/02 00:01:59;;;;;;;;;;;13.60;99.90;;;;;;2098654;28;20087;-72
2022/06/02 00:03:56;;;;;;;5.95;5.05;;;13.60;99.90;;;;;;2097655;28;19912;-72
2022/06/02 00:05:17;;;;;;;7.03;6.40;;;13.60;99.90;;;;;;2071159;28;20090;-71
2022/06/02 00:06:30;;;;;;;6.50;5.90;;;13.70;99.90;;;;;;2097203;28;20028;-72
2022/06/02 00:08:10;;;;;;;7.25;6.55;;;13.60;99.90;;;;;;2088517;28;20175;-72
2022/06/02 00:09:14;;;;;;;6.87;6.17;;;13.70;99.90;;;;;;2094114;28;20028;-72
2022/06/02 00:10:46;;;;;;;6.47;5.88;;;13.60;99.90;;;;;;2088774;28;20819;-71
2022/06/02 00:12:07;;;;;;;7.30;6.60;;;13.70;99.90;;;;;;2095551;28;20039;-70
2022/06/02 00:13:24;;;;;;;;;;;13.70;99.90;;;;;;2097210;28;20024;-70
2022/06/02 00:14:43;;;;;;;6.80;6.20;;;13.70;99.90;;;;;;2096989;28;19985;-71
2022/06/02 00:15:52;;;;;;;5.85;5.35;;;13.70;99.90;;;;;;2096903;28;20107;-71
2022/06/02 00:17:02;;;;;;;5.00;4.60;;;13.70;99.90;;;;;;2096860;28;20054;-72
2022/06/02 00:18:03;;;;;;;5.78;5.28;;;13.70;99.90;;;;;;2097145;28;20081;-70
2022/06/02 00:19:10;;;;;;;5.22;4.80;;;13.70;99.90;;;;;;2096954;28;20510;-70
2022/06/02 00:20:21;;;;;;;5.43;4.93;;;13.70;99.90;;;;;;2096958;28;20035;-70
2022/06/02 00:21:25;;;;;;;5.40;4.90;;;13.70;99.90;;;;;;2096357;28;20413;-70
2022/06/02 00:22:29;;;;;;;5.25;4.85;;;13.70;99.90;;;;;;2096449;28;20375;-71
2022/06/02 00:23:35;;;;;;;6.97;6.30;;;13.70;99.90;;;;;;2097101;28;20021;-71
2022/06/02 00:24:47;;;;;;;8.55;5.97;;;13.70;99.90;;;;;;2096932;28;20028;-72
2022/06/02 00:25:54;;;;;;;6.07;5.57;;;13.70;99.90;;;;;;2096087;28;20033;-72
2022/06/02 00:27:23;;;;;;;6.10;5.55;;;13.70;99.90;;;;;;2095704;28;20051;-70
2022/06/02 00:28:46;;;;;;;5.70;5.20;;;13.60;99.90;;;;;;2088671;28;20036;-70
2022/06/02 00:30:13;;;;;;;5.82;5.22;;;13.70;99.90;;;;;;2088765;28;20021;-72
2022/06/02 00:31:36;;;;;;;5.38;4.80;;;13.60;99.90;;;;;;2088085;28;20093;-71
2022/06/02 00:33:14;;;;;;;6.75;5.50;;;13.70;99.90;;;;;;2082848;28;20071;-71
2022/06/02 00:34:22;;;;;;;5.30;4.90;;;13.60;99.90;;;;;;2085001;28;20029;-71
2022/06/02 00:36:06;;;;;;;5.97;5.47;;;13.60;99.90;;;;;;2087963;28;20511;-71
2022/06/02 00:37:19;;;;;;;6.43;5.50;;;13.50;99.90;;;;;;2072684;28;20047;-69
2022/06/02 00:38:36;;;;;;;5.88;5.38;;;13.50;99.90;;;;;;2088764;28;20021;-71
2022/06/02 00:39:38;;;;;;;5.63;5.13;;;13.40;99.90;;;;;;2088650;28;20036;-70
2022/06/02 00:40:39;;;;;;;6.10;5.50;;;13.40;99.90;;;;;;2088500;28;20085;-71
2022/06/02 00:41:58;;;;;;;6.20;4.95;;;13.40;99.90;;;;;;2088472;28;20021;-70
2022/06/02 00:43:10;;;;;;;5.78;5.28;;;13.40;99.90;;;;;;2088494;28;20032;-71
2022/06/02 00:44:42;;;;;;;5.97;5.47;;;13.50;99.90;;;;;;2088496;28;20039;-70
2022/06/02 00:45:44;;;;;;;7.78;5.45;;;13.50;99.90;;;;;;2064232;28;20046;-70
2022/06/02 00:46:58;;;;;;;5.88;5.38;;;13.50;99.90;;;;;;2088495;28;20029;-71
2022/06/02 00:48:27;;;;;;;8.23;6.57;;;13.40;99.90;;;;;;2088663;28;20384;-71
2022/06/02 00:49:56;;;;;;;6.60;5.95;;;13.50;99.90;;;;;;2088051;28;20041;-70
2022/06/02 00:51:05;;;;;;;6.13;5.55;;;13.50;99.90;;;;;;2088303;28;20075;-71
2022/06/02 00:52:27;;;;;;;6.47;5.40;;;13.50;99.90;;;;;;2088672;28;20032;-70
2022/06/02 00:57:30;;;;;;;6.80;6.20;;;13.50;99.90;;;;;;2088626;28;20040;-70
2022/06/02 00:59:08;;;;;;;6.20;5.70;;;13.40;99.90;;;;;;2088333;28;20020;-70
2022/06/02 01:00:30;;;;;;;7.63;6.93;;;13.50;99.90;;;;;;2066113;28;20100;-69
2022/06/02 01:01:34;;;;;;;7.70;6.93;;;13.40;99.90;;;;;;2088420;28;20097;-70
2022/06/02 01:02:45;;;;;;;7.93;7.22;;;13.40;99.90;;;;;;2088444;28;20087;-70
2022/06/02 01:03:48;;;;;;;9.48;6.45;;;13.30;99.90;;;;;;2088416;28;20436;-70
2022/06/02 01:04:49;;;;;;;7.40;6.47;;;13.30;99.90;;;;;;2088442;28;20025;-70
2022/06/02 01:05:56;;;;;;;8.23;7.28;;;13.30;99.90;;;;;;2088027;28;20033;-70
2022/06/02 01:07:07;;;;;;;8.75;6.90;;;13.30;99.90;;;;;;2088318;28;20442;-70
2022/06/02 01:08:55;;;;;;;7.72;7.00;;;13.30;99.90;;;;;;2087808;28;20025;-72
2022/06/02 01:10:21;;;;;;;7.25;6.55;;;13.20;99.90;;;;;;2088056;28;20454;-71
2022/06/02 01:11:46;;;;;;;7.13;6.43;;;13.20;99.90;;;;;;2088453;28;20382;-72
2022/06/02 01:13:00;;;;;;;7.10;6.50;;;13.20;99.90;;;;;;2087839;28;20127;-72
2022/06/02 01:14:20;;;;;;;7.00;6.40;;;13.20;99.90;;;;;;2087864;28;20074;-70
2022/06/02 01:15:32;;;;;;;7.60;6.90;;;13.10;99.90;;;;;;2087989;28;20049;-72
2022/06/02 01:17:24;;;;;;;7.10;6.50;;;13.10;99.90;;;;;;2088335;28;20112;-69
2022/06/02 01:18:55;;;;;;;7.00;6.40;;;13.10;99.90;;;;;;2062721;28;20532;-71
2022/06/02 01:19:58;;;;;;;7.05;6.35;;;13.10;99.90;;;;;;2087070;28;20060;-70
2022/06/02 01:21:27;;;;;;;7.05;6.40;;;13.10;99.90;;;;;;2087737;28;20083;-71
2022/06/02 01:22:28;;;;;;;6.88;6.18;;;13.00;99.90;;;;;;2087784;28;20087;-70
2022/06/02 01:24:07;;;;;;;6.82;6.22;;;13.00;99.90;;;;;;2088443;28;20037;-71
2022/06/02 01:25:36;;;;;;;6.18;5.68;;;13.00;99.90;;;;;;2088167;28;20033;-75
2022/06/02 01:27:15;;;;;;;6.30;5.80;;;13.00;99.90;;;;;;2087523;28;20442;-70
2022/06/02 01:28:49;;;;;;;6.40;5.80;;;13.00;99.90;;;;;;2088175;28;20803;-71
2022/06/02 01:30:31;;;;;;;6.53;5.97;;;13.10;99.90;;;;;;2088258;28;20028;-70
2022/06/02 01:31:49;;;;;;;6.43;5.82;;;13.10;99.90;;;;;;2086848;28;20039;-71
2022/06/02 01:33:13;;;;;;;6.75;5.70;;;13.10;99.90;;;;;;2081794;28;20752;-70
2022/06/02 01:34:52;;;;;;;5.93;5.43;;;13.10;99.90;;;;;;2088064;28;20136;-71
2022/06/02 01:35:55;;;;;;;5.78;5.28;;;13.10;99.90;;;;;;2062463;28;20026;-71
2022/06/02 01:37:09;;;;;;;5.80;5.30;;;13.10;99.90;;;;;;2083604;28;20037;-71
2022/06/02 01:38:47;;;;;;;5.50;5.00;;;13.00;99.90;;;;;;2088306;28;20033;-71
2022/06/02 01:40:25;;;;;;;5.40;4.80;;;13.00;99.90;;;;;;2062579;28;20266;-70
2022/06/02 01:41:47;;;;;;;5.47;4.97;;;13.00;99.90;;;;;;2088326;28;20071;-70
2022/06/02 01:43:17;;;;;;;5.40;4.90;;;13.00;99.90;;;;;;2088391;28;20044;-70
2022/06/02 01:44:24;;;;;;;5.80;5.30;;;13.00;99.90;;;;;;2088500;28;20688;-70
2022/06/02 01:45:49;;;;;;;5.40;4.90;;;13.00;99.90;;;;;;2095801;28;20028;-71
2022/06/02 01:47:06;;;;;;;4.80;4.30;;;12.90;99.90;;;;;;2092963;28;20192;-71
2022/06/02 01:48:29;;;;;;;6.03;4.97;;;12.90;99.90;;;;;;2088278;28;20028;-70
2022/06/02 01:49:59;;;;;;;5.20;4.70;;;13.00;99.90;;;;;;2087523;28;20041;-70
2022/06/02 01:51:24;;;;;;;6.13;5.53;;;13.00;99.90;;;;;;2087821;28;20082;-71
2022/06/02 01:52:43;;;;;;;5.90;5.40;;;12.90;99.90;;;;;;2088150;28;20411;-71
2022/06/02 01:54:00;;;;;;;5.80;5.30;;;12.90;99.90;;;;;;2079144;28;20582;-70
2022/06/02 01:55:25;;;;;;;6.03;5.43;;;12.90;99.90;;;;;;2081551;28;20049;-70
2022/06/02 01:56:49;;;;;;;5.60;5.10;;;12.80;99.90;;;;;;2088114;28;20035;-71
2022/06/02 01:58:11;;;;;;;6.03;5.43;;;12.80;99.90;;;;;;2088187;28;20037;-71
2022/06/02 01:59:24;;;;;;;5.68;5.20;;;12.70;99.90;;;;;;2088120;28;20096;-71
2022/06/02 02:00:27;;;;;;;5.97;5.38;;;12.70;99.90;;;;;;2088018;28;20033;-71
2022/06/02 02:01:40;;;;;;;5.15;4.75;;;12.60;99.90;;;;;;2087958;28;20476;-71
2022/06/02 02:03:04;;;;;;;5.90;5.32;;;12.60;99.90;;;;;;2087995;28;20025;-71
2022/06/02 02:04:27;;;;;;;5.65;5.15;;;12.50;99.90;;;;;;2087949;28;20482;-70
2022/06/02 02:05:40;;;;;;;4.88;4.47;;;12.50;99.90;;;;;;2087459;28;20106;-70
2022/06/02 02:06:52;;;;;;;4.90;4.50;;;12.50;99.90;;;;;;2087276;28;20047;-70
2022/06/02 02:08:20;;;;;;;5.05;4.63;;;12.50;99.90;;;;;;2087301;28;20056;-70
2022/06/02 02:09:51;;;;;;;4.93;4.43;;;12.50;99.90;;;;;;2087587;28;20034;-71
2022/06/02 02:11:07;;;;;;;4.70;4.30;;;12.40;99.90;;;;;;2087823;28;20357;-71
2022/06/02 02:12:46;;;;;;;4.85;4.45;;;12.40;99.90;;;;;;2087876;28;20700;-71
2022/06/02 02:14:28;;;;;;;5.28;4.78;;;12.40;99.90;;;;;;2074333;28;20481;-69
2022/06/02 02:15:57;;;;;;;6.43;5.30;;;12.30;99.90;;;;;;2087633;28;20021;-71
2022/06/02 02:17:07;;;;;;;5.70;5.20;;;12.30;99.90;;;;;;2087950;28;20035;-71
2022/06/02 02:18:45;;;;;;;7.17;6.10;;;12.30;99.90;;;;;;2088020;28;20115;-71
2022/06/02 02:20:30;;;;;;;6.65;5.63;;;12.20;99.90;;;;;;2087229;28;20329;-71
2022/06/02 02:22:08;;;;;;;6.18;5.57;;;12.20;99.90;;;;;;2087568;28;20036;-71
2022/06/02 02:23:31;;;;;;;5.78;5.18;;;12.20;99.90;;;;;;2087745;28;20029;-69
2022/06/02 02:25:00;;;;;;;5.72;5.22;;;12.10;99.90;;;;;;2087699;28;20021;-70
2022/06/02 02:26:26;;;;;;;6.13;5.53;;;12.10;99.90;;;;;;2087505;28;20120;-71
2022/06/02 02:28:02;;;;;;;5.90;5.30;;;12.10;99.90;;;;;;2086907;28;20033;-70
2022/06/02 02:29:13;;;;;;;6.32;5.50;;;12.10;99.90;;;;;;2087657;28;20067;-71
2022/06/02 02:30:14;;;;;;;5.78;5.18;;;12.00;99.90;;;;;;2087820;28;20108;-69
2022/06/02 02:31:36;;;;;;;5.72;5.18;;;12.00;99.90;;;;;;2087533;28;20029;-70
2022/06/02 02:32:46;;;;;;;6.18;5.57;;;12.00;99.90;;;;;;2087693;28;20029;-70
2022/06/02 02:34:12;;;;;;;5.80;5.30;;;12.00;99.90;;;;;;2086918;28;20048;-70
2022/06/02 02:35:34;;;;;;;7.25;5.53;;;11.90;99.90;;;;;;2087103;28;20067;-71
2022/06/02 02:36:58;;;;;;;6.03;5.53;;;11.90;99.90;;;;;;2087841;28;20028;-71
2022/06/02 02:38:11;;;;;;;6.03;5.50;;;11.90;99.90;;;;;;2087398;28;20036;-71
2022/06/02 02:39:27;;;;;;;5.95;5.45;;;11.80;99.90;;;;;;2086965;28;20043;-71
2022/06/02 02:40:43;;;;;;;6.45;5.85;;;11.80;99.90;;;;;;2087377;28;20029;-69
2022/06/02 02:42:06;;;;;;;6.97;6.13;;;11.80;99.90;;;;;;2087290;28;20033;-71
2022/06/02 02:43:15;;;;;;;6.60;6.00;;;11.80;99.90;;;;;;2087725;28;20025;-71
2022/06/02 02:44:23;;;;;;;6.25;5.75;;;11.70;99.90;;;;;;2087552;28;20036;-71
2022/06/02 02:45:38;;;;;;;5.95;5.45;;;11.70;99.90;;;;;;2087241;28;20082;-69
2022/06/02 02:47:11;;;;;;;6.38;5.80;;;11.70;99.90;;;;;;2087732;28;20072;-71
2022/06/02 02:48:51;;;;;;;7.15;5.90;;;11.70;99.90;;;;;;2087782;28;20033;-70
2022/06/02 02:49:54;;;;;;;7.13;6.43;;;11.60;99.90;;;;;;2062001;28;20064;-72
2022/06/02 02:51:07;;;;;;;7.07;6.40;;;11.60;99.90;;;;;;2083165;28;20045;-71
2022/06/02 02:52:26;;;;;;;6.85;6.15;;;11.60;99.90;;;;;;2087034;28;20205;-70
2022/06/02 02:53:40;;;;;;;6.60;5.90;;;11.60;99.90;;;;;;2087229;28;20040;-71
2022/06/02 02:55:07;;;;;;;7.45;6.45;;;11.60;99.90;;;;;;2088179;28;20064;-71
2022/06/02 02:56:18;;;;;;;6.75;6.00;;;11.60;99.90;;;;;;2087438;28;20428;-72
2022/06/02 02:57:37;;;;;;;7.90;6.07;;;11.60;99.90;;;;;;2088116;28;20094;-71
2022/06/02 02:58:52;;;;;;;6.97;6.28;;;11.60;99.90;;;;;;2088035;28;20048;-71
2022/06/02 03:00:04;;;;;;;7.13;6.53;;;11.60;99.90;;;;;;2087993;28;20394;-71
2022/06/02 03:01:25;;;;;;;7.03;6.38;;;11.60;99.90;;;;;;2088544;28;20502;-71
2022/06/02 03:02:45;;;;;;;7.45;6.75;;;11.60;99.90;;;;;;2088522;28;20455;-71
2022/06/02 03:04:06;;;;;;;7.10;6.50;;;11.60;99.90;;;;;;2088627;28;20041;-72
2022/06/02 03:05:52;;;;;;;6.90;6.15;;;11.60;99.90;;;;;;2088778;28;20131;-71
2022/06/02 03:06:54;;;;;;;7.07;6.30;;;11.60;99.90;;;;;;2088404;28;20039;-72
2022/06/02 03:08:09;;;;;;;7.30;6.35;;;11.60;99.90;;;;;;2087525;28;20025;-71
2022/06/02 03:09:40;;;;;;;6.50;5.90;;;11.60;99.90;;;;;;2087872;28;20033;-72
2022/06/02 03:10:43;;;;;;;;;;;11.60;99.90;;;;;;2088419;28;20021;-70
2022/06/02 03:11:52;;;;;;;6.72;6.13;;;11.50;99.90;;;;;;2087456;28;19912;-71
2022/06/02 03:13:10;;;;;;;7.30;6.60;;;11.50;99.90;;;;;;2087471;28;20028;-71
2022/06/02 03:14:59;;;;;;;8.05;6.82;;;11.50;99.90;;;;;;2087546;28;20029;-72
2022/06/02 03:16:12;;;;;;;6.57;5.97;;;11.50;99.90;;;;;;2087405;28;20028;-70
2022/06/02 03:17:38;;;;;;;6.50;5.90;;;11.60;99.90;;;;;;2087690;28;20120;-70
2022/06/02 03:18:41;;;;;;;6.82;6.13;;;11.60;99.90;;;;;;2087634;28;20033;-70
2022/06/02 03:20:08;;;;;;;7.35;6.22;;;11.60;99.90;;;;;;2087595;28;20025;-70
2022/06/02 03:21:35;;;;;;;7.40;6.40;;;11.60;99.90;;;;;;2061683;28;20137;-70
2022/06/02 03:22:55;;;;;;;6.88;6.18;;;11.60;99.90;;;;;;2086573;28;20041;-69
2022/06/02 03:24:39;;;;;;;6.70;6.00;;;11.60;99.90;;;;;;2087067;28;20063;-70
2022/06/02 03:25:49;;;;;;;6.65;6.05;;;11.60;99.90;;;;;;2086649;28;20040;-70
2022/06/02 03:27:12;;;;;;;7.00;6.30;;;11.70;99.90;;;;;;2087316;28;20503;-68
2022/06/02 03:28:26;;;;;;;6.95;6.35;;;11.70;99.90;;;;;;2095365;28;20401;-71
2022/06/02 03:29:47;;;;;;;6.25;5.57;;;11.70;99.90;;;;;;2088756;28;20029;-70
2022/06/02 03:31:14;;;;;;;6.45;5.85;;;11.70;99.90;;;;;;2095325;28;20128;-71
2022/06/02 03:35:14;;;;;;;10.55;7.20;;;11.70;99.90;;;;;;2095747;28;20029;-69
2022/06/02 03:36:32;;;;;;;7.97;6.97;;;11.80;99.90;;;;;;2095805;28;20505;-70
2022/06/02 03:37:59;;;;;;;7.20;6.50;;;11.80;99.90;;;;;;2095783;28;20125;-70
2022/06/02 03:39:08;;;;;;;8.57;6.65;;;11.80;99.90;;;;;;2095652;28;20035;-70
2022/06/02 03:40:14;;;;;;;9.85;7.00;;;11.80;99.90;;;;;;2095506;28;20032;-70
2022/06/02 03:41:23;;;;;;;7.55;6.75;;;11.80;99.90;;;;;;2095165;28;20449;-70
2022/06/02 03:42:45;;;;;;;6.57;5.97;;;11.80;99.90;;;;;;2095003;28;20538;-71
2022/06/02 03:44:18;;;;;;;7.72;6.95;;;11.80;99.90;;;;;;2095463;28;20036;-70
2022/06/02 03:45:31;;;;;;;8.02;7.22;;;11.80;99.90;;;;;;2096044;28;20024;-69
2022/06/02 03:47:11;;;;;;;8.23;7.43;;;11.70;99.90;;;;;;2097528;28;20502;-70
2022/06/02 03:48:36;;;;;;;7.40;6.65;;;11.70;99.90;;;;;;2096673;28;20406;-70
2022/06/02 03:49:45;;;;;;;7.15;6.45;;;11.70;99.90;;;;;;2096969;28;20051;-70
2022/06/02 03:51:21;;;;;;;7.38;6.70;;;11.70;99.90;;;;;;2096686;28;20273;-68
2022/06/02 03:52:59;;;;;;;6.70;6.10;;;11.70;99.90;;;;;;2088422;28;20094;-69
2022/06/02 03:54:11;;;;;;;6.50;5.90;;;11.70;99.90;;;;;;2096507;28;20800;-71
2022/06/02 03:55:35;;;;;;;7.22;6.10;;;11.70;99.90;;;;;;2096304;28;20623;-71
2022/06/02 03:57:06;;;;;;;8.25;7.45;;;11.80;99.90;;;;;;2080478;28;20461;-70
2022/06/02 03:58:23;;;;;;;8.40;7.30;;;11.80;99.90;;;;;;2096991;28;20496;-71
2022/06/02 03:59:55;;;;;;;8.38;6.55;;;11.90;99.90;;;;;;2097282;28;20031;-70
2022/06/02 04:01:03;;;;;;;7.65;6.75;;;11.90;99.90;;;;;;2097096;28;20451;-71
2022/06/02 04:02:29;;;;;;;8.10;7.30;;;12.00;99.90;;;;;;2097335;28;20607;-69
2022/06/02 04:04:23;;;;;;;7.20;6.50;;;12.10;99.90;;;;;;2096525;28;20096;-70
2022/06/02 04:05:53;;;;;;;7.97;7.20;;;12.20;99.90;;;;;;2078626;28;20630;-70
2022/06/02 04:06:54;;;;;;;7.95;7.00;;;12.70;99.90;;;;;;2079526;28;20030;-71
2022/06/02 04:08:23;;;;;;;7.47;6.78;;;13.00;99.90;;;;;;2089433;28;20025;-71
2022/06/02 04:09:26;;;;;;;6.95;6.35;;;13.40;99.90;;;;;;2096337;28;20623;-71
2022/06/02 04:11:03;;;;;;;7.05;5.93;;;13.80;99.90;;;;;;2096257;28;20048;-71
2022/06/02 04:14:10;;;;;;;5.47;4.97;;;14.90;99.90;;;;;;2097078;28;20052;-70
2022/06/02 04:15:53;;;;;;;36.78;22.80;;;15.40;99.90;;;;;;2097418;28;20040;-71
2022/06/02 04:17:17;;;;;;;20.38;13.25;;;16.10;99.90;;;;;;2071641;28;20034;-70
2022/06/02 04:18:29;;;;;;;12.45;8.55;;;16.50;99.90;;;;;;2083922;28;20029;-71
2022/06/02 04:21:29;;;;;;;5.90;5.13;;;17.10;99.90;;;;;;2097058;28;20044;-71
2022/06/02 04:22:48;;;;;;;6.82;5.72;;;17.30;99.90;;;;;;2096752;28;20027;-71
2022/06/02 04:24:06;;;;;;;9.65;5.70;;;17.30;99.90;;;;;;2097099;28;20052;-71
2022/06/02 04:25:20;;;;;;;6.18;5.57;;;17.40;99.90;;;;;;2096985;28;20028;-71
2022/06/02 04:26:45;;;;;;;5.53;5.03;;;17.50;99.90;;;;;;2097047;28;20116;-71
2022/06/02 04:28:11;;;;;;;5.13;4.65;;;17.50;99.90;;;;;;2088822;28;20052;-71
2022/06/02 04:29:39;;;;;;;6.38;5.20;;;17.60;99.90;;;;;;2088756;28;20460;-70
2022/06/02 04:30:51;;;;;;;6.07;5.40;;;17.70;99.70;;;;;;2088597;28;20037;-70
2022/06/02 04:32:08;;;;;;;7.15;5.35;;;17.70;98.70;;;;;;2088692;28;20086;-70
2022/06/02 04:33:32;;;;;;;4.60;4.20;;;17.70;98.10;;;;;;2087939;28;20017;-72
2022/06/02 04:35:06;;;;;;;6.68;5.32;;;17.90;98.50;;;;;;2088206;28;20032;-72
2022/06/02 04:36:19;;;;;;;5.82;4.95;;;18.10;97.30;;;;;;2088619;28;20122;-70
2022/06/02 04:37:42;;;;;;;5.40;4.90;;;18.40;96.70;;;;;;2088186;28;20438;-70
2022/06/02 04:39:07;;;;;;;5.32;4.82;;;18.60;95.70;;;;;;2088246;28;20511;-71
2022/06/02 04:40:32;;;;;;;6.30;4.78;;;18.70;94.50;;;;;;2088648;28;20037;-72
2022/06/02 04:42:10;;;;;;;4.82;4.32;;;18.80;94.20;;;;;;2088604;28;20032;-71
2022/06/02 04:43:30;;;;;;;4.53;4.13;;;18.90;93.90;;;;;;2088042;28;20458;-71
2022/06/02 04:45:16;;;;;;;5.40;4.10;;;19.10;93.40;;;;;;2088171;28;20063;-71
2022/06/02 04:46:59;;;;;;;4.60;4.20;;;19.40;91.70;;;;;;2088621;28;20025;-70
2022/06/02 04:48:31;;;;;;;4.97;4.47;;;19.40;90.90;;;;;;2088536;28;20029;-71
2022/06/02 04:49:49;;;;;;;5.35;4.85;;;19.70;90.50;;;;;;2080552;28;20056;-71
2022/06/02 04:50:53;;;;;;;6.90;5.03;;;19.60;88.20;;;;;;2088462;28;20037;-69
2022/06/02 04:52:31;;;;;;;6.18;5.60;;;19.20;89.20;;;;;;2087987;28;20036;-72
2022/06/02 04:53:51;;;;;;;5.53;5.03;;;18.90;88.00;;;;;;2088527;28;20056;-71
2022/06/02 04:55:10;;;;;;;4.78;4.10;;;18.80;90.10;;;;;;2088783;28;20029;-71
2022/06/02 04:56:26;;;;;;;4.63;4.22;;;19.10;90.10;;;;;;2088433;28;20040;-70
2022/06/02 04:57:52;;;;;;;4.18;3.78;;;19.40;89.60;;;;;;2088081;28;20035;-71
2022/06/02 04:58:58;;;;;;;4.93;4.50;;;19.60;88.80;;;;;;2088595;28;20028;-71
2022/06/02 05:00:21;;;;;;;6.03;5.25;;;19.50;86.90;;;;;;2088403;28;20047;-73
2022/06/02 05:01:46;;;;;;;5.57;5.07;;;19.50;85.10;;;;;;2088704;28;20037;-71
2022/06/02 05:03:10;;;;;;;5.40;4.90;;;19.60;85.20;;;;;;2087558;28;20123;-71
2022/06/02 05:04:31;;;;;;;5.63;5.13;;;19.50;85.40;;;;;;2088241;28;20041;-73
2022/06/02 05:05:50;;;;;;;6.32;5.07;;;19.50;84.80;;;;;;2088397;28;20090;-70
2022/06/02 05:07:16;;;;;;;4.78;3.92;;;19.50;84.70;;;;;;2087830;28;20546;-74
2022/06/02 05:08:41;;;;;;;5.55;5.05;;;19.70;83.90;;;;;;2088082;28;20057;-71
2022/06/02 05:10:06;;;;;;;4.88;4.47;;;19.50;83.60;;;;;;2088401;28;20613;-71
2022/06/02 05:11:34;;;;;;;4.70;4.15;;;19.60;83.80;;;;;;2088503;28;20120;-71
2022/06/02 05:12:53;;;;;;;4.30;3.85;;;19.90;83.20;;;;;;2088370;28;20025;-70
2022/06/02 05:14:19;;;;;;;4.53;4.13;;;20.20;82.10;;;;;;2088433;28;20033;-72
2022/06/02 05:15:55;;;;;;;6.38;4.65;;;20.50;80.90;;;;;;2088386;28;20063;-71
2022/06/02 05:17:29;;;;;;;5.72;4.10;;;20.60;80.40;;;;;;2088382;28;20021;-70
2022/06/02 05:18:50;;;;;;;5.05;4.55;;;20.70;77.60;;;;;;2087070;28;20127;-70
2022/06/02 05:20:22;;;;;;;5.68;5.18;;;20.60;77.50;;;;;;2087799;28;20128;-71
2022/06/02 05:21:54;;;;;;;4.50;3.45;;;20.30;77.30;;;;;;2088178;28;20025;-71
2022/06/02 05:23:07;;;;;;;4.60;3.88;;;20.60;78.00;;;;;;2088090;28;20033;-72
2022/06/02 05:24:40;;;;;;;5.25;4.53;;;20.70;77.50;;;;;;2087475;28;20680;-72
2022/06/02 05:26:23;;;;;;;5.07;4.68;;;20.70;75.30;;;;;;2087915;28;20063;-72
2022/06/02 05:27:58;;;;;;;4.40;4.00;;;20.60;76.40;;;;;;2078004;28;20043;-72
2022/06/02 05:29:12;;;;;;;3.85;3.55;;;20.40;77.30;;;;;;2096364;28;20440;-72
2022/06/02 05:30:54;;;;;;;6.50;3.97;;;20.70;76.50;;;;;;2096515;28;20458;-71
2022/06/02 05:32:16;;;;;;;6.63;5.22;;;20.90;74.80;;;;;;2096777;28;20081;-71
2022/06/02 05:33:34;;;;;;;5.10;4.60;;;20.50;74.20;;;;;;2097703;28;20030;-72
2022/06/02 05:35:05;;;;;;;6.22;5.72;;;20.30;76.50;;;;;;2097399;28;20032;-70
2022/06/02 05:36:38;;;;;;;5.03;4.63;;;20.30;76.50;;;;;;2096821;28;20028;-70
2022/06/02 05:37:47;;;;;;;6.05;5.07;;;20.20;76.20;;;;;;2097120;28;20124;-71
2022/06/02 05:39:01;;;;;;;6.68;6.00;;;20.10;75.80;;;;;;2097076;28;20773;-69
2022/06/02 05:40:17;;;;;;;6.07;5.57;;;19.80;75.80;;;;;;2097036;28;20025;-71
2022/06/02 05:41:48;;;;;;;7.55;6.38;;;19.40;77.80;;;;;;2097616;28;20032;-72
2022/06/02 05:45:13;;;;;;;5.18;4.60;;;18.80;80.70;;;;;;2096678;28;20036;-70
2022/06/02 05:46:39;;;;;;;6.57;5.75;;;19.40;80.40;;;;;;2096681;28;20041;-72
2022/06/02 05:48:01;;;;;;;4.65;4.25;;;19.50;78.10;;;;;;2096244;28;20063;-71
2022/06/02 05:49:16;;;;;;;5.75;5.25;;;19.80;78.20;;;;;;2096908;28;20028;-72
2022/06/02 05:50:29;;;;;;;5.90;5.30;;;19.70;78.00;;;;;;2097429;28;20044;-70
2022/06/02 05:51:59;;;;;;;6.25;5.53;;;19.90;77.40;;;;;;2096745;28;20040;-72
2022/06/02 05:53:43;;;;;;;6.13;5.53;;;20.10;76.60;;;;;;2096924;28;20032;-72
2022/06/02 05:55:00;;;;;;;7.50;5.82;;;19.90;75.70;;;;;;2064506;28;20065;-71
2022/06/02 05:56:27;;;;;;;5.88;5.30;;;19.70;76.50;;;;;;2096242;28;20032;-71
2022/06/02 05:57:47;;;;;;;7.63;6.18;;;19.90;77.20;;;;;;2096889;28;20082;-71
2022/06/02 05:59:08;;;;;;;6.95;5.35;;;19.70;76.70;;;;;;2096908;28;20043;-71
2022/06/02 06:00:25;;;;;;;5.47;4.97;;;19.60;78.80;;;;;;2096360;28;20040;-71
2022/06/02 06:01:56;;;;;;;5.05;4.28;;;19.80;79.00;;;;;;2096582;28;20553;-70
2022/06/02 06:03:18;;;;;;;7.30;5.47;;;20.20;77.80;;;;;;2096680;28;20491;-71
2022/06/02 06:04:40;;;;;;;5.50;5.00;;;20.40;76.20;;;;;;2096152;28;20379;-72
2022/06/02 06:06:00;;;;;;;6.82;6.22;;;20.50;75.10;;;;;;2096108;28;20493;-72
2022/06/02 06:07:20;;;;;;;6.68;6.07;;;19.90;74.60;;;;;;2096877;28;20470;-72
2022/06/02 06:08:23;;;;;;;8.90;6.90;;;19.30;77.40;;;;;;2097051;28;20036;-71
2022/06/02 06:09:28;;;;;;;6.82;6.15;;;19.20;77.90;;;;;;2096102;28;20513;-72
2022/06/02 06:10:39;;;;;;;6.68;6.07;;;19.00;78.90;;;;;;2097231;28;20028;-71
2022/06/02 06:11:54;;;;;;;6.43;5.82;;;18.80;80.80;;;;;;2096942;28;20029;-69
2022/06/02 06:13:09;;;;;;;6.80;6.13;;;18.80;80.50;;;;;;2096820;28;20227;-71
2022/06/02 06:14:40;;;;;;;6.25;5.70;;;18.90;80.50;;;;;;2096574;28;20032;-72
2022/06/02 06:15:53;;;;;;;5.00;4.60;;;18.90;80.20;;;;;;2096130;28;20032;-71
2022/06/02 06:17:13;;;;;;;6.32;5.47;;;19.20;80.60;;;;;;2095572;28;20474;-70
2022/06/02 06:18:33;;;;;;;;;;;19.50;81.40;;;;;;2096511;28;20016;-70
2022/06/02 06:19:50;;;;;;;6.57;5.72;;;19.50;78.90;;;;;;2096227;28;19919;-70
2022/06/02 06:21:15;;;;;;;6.65;6.05;;;19.50;79.30;;;;;;2095992;28;20032;-68
2022/06/02 06:22:35;;;;;;;7.93;5.60;;;19.30;79.40;;;;;;2096263;28;20040;-69
2022/06/02 06:23:44;;;;;;;6.93;6.15;;;19.10;79.00;;;;;;2096094;28;20028;-69
2022/06/02 06:25:15;;;;;;;7.57;6.30;;;18.80;79.80;;;;;;2095860;28;20040;-70
2022/06/02 06:26:22;;;;;;;7.50;6.75;;;18.30;81.90;;;;;;2095388;28;20062;-71
2022/06/02 06:27:49;;;;;;;7.63;6.70;;;17.80;83.40;;;;;;2089459;28;20702;-72
2022/06/02 06:29:11;;;;;;;7.15;6.45;;;17.60;86.10;;;;;;2087194;28;20431;-70
2022/06/02 06:30:37;;;;;;;8.07;6.85;;;17.40;88.10;;;;;;2087301;28;20135;-71
2022/06/02 06:32:02;;;;;;;6.80;6.10;;;17.20;89.00;;;;;;2087713;28;20021;-71
2022/06/02 06:33:33;;;;;;;7.95;7.00;;;17.10;88.90;;;;;;2087850;28;20075;-71
2022/06/02 06:34:56;;;;;;;9.13;7.30;;;17.00;89.50;;;;;;2087689;28;20029;-71
2022/06/02 06:36:19;;;;;;;7.43;6.72;;;16.70;90.80;;;;;;2088767;28;20035;-71
2022/06/02 06:37:47;;;;;;;8.30;5.97;;;16.60;90.80;;;;;;2096017;28;20033;-71
2022/06/02 06:39:04;;;;;;;7.55;6.15;;;16.70;90.60;;;;;;2096072;28;20028;-70
2022/06/02 06:40:17;;;;;;;6.32;5.57;;;16.70;90.70;;;;;;2096008;28;20402;-70
2022/06/02 06:41:23;;;;;;;6.97;6.28;;;16.70;90.30;;;;;;2096040;28;20025;-72
2022/06/02 06:42:42;;;;;;;7.30;6.65;;;16.80;90.60;;;;;;2095986;28;20663;-71
2022/06/02 06:44:02;;;;;;;7.65;6.85;;;16.70;90.40;;;;;;2095561;28;20028;-71
2022/06/02 06:45:31;;;;;;;7.05;6.35;;;16.60;90.50;;;;;;2095260;28;20397;-71
2022/06/02 06:47:29;;;;;;;5.60;4.97;;;16.40;90.50;;;;;;2095689;28;20028;-70
2022/06/02 06:48:37;;;;;;;8.20;7.30;;;16.60;90.70;;;;;;2069924;28;20072;-71
2022/06/02 06:49:41;;;;;;;9.55;7.60;;;16.60;91.30;;;;;;2069996;28;20353;-71
2022/06/02 06:50:57;;;;;;;7.00;6.20;;;16.40;91.50;;;;;;2086286;28;20036;-70
2022/06/02 06:52:33;;;;;;;6.57;5.97;;;16.40;91.80;;;;;;2096012;28;20258;-70
2022/06/02 06:54:02;;;;;;;8.55;6.32;;;16.50;92.00;;;;;;2085247;28;20037;-71
2022/06/02 06:55:27;;;;;;;8.13;7.32;;;16.60;92.60;;;;;;2095653;28;20640;-70
2022/06/02 06:56:39;;;;;;;8.35;7.55;;;16.50;92.00;;;;;;2096130;28;20062;-71
2022/06/02 06:58:01;;;;;;;7.57;6.80;;;16.30;92.20;;;;;;2096391;28;20032;-71
2022/06/02 06:59:31;;;;;;;8.68;7.82;;;16.40;93.20;;;;;;2096496;28;20462;-70
2022/06/02 07:00:37;;;;;;;10.55;7.82;;;16.40;93.30;;;;;;2062085;28;20046;-69
2022/06/02 07:01:57;;;;;;;8.38;6.85;;;16.50;93.90;;;;;;2095541;28;20060;-72
2022/06/02 07:03:12;;;;;;;8.40;7.60;;;16.50;93.80;;;;;;2092888;28;20040;-70
2022/06/02 07:04:28;;;;;;;9.45;7.43;;;16.40;93.40;;;;;;2086786;28;20040;-71
2022/06/02 07:05:44;;;;;;;7.78;6.90;;;16.40;93.50;;;;;;2087177;28;20040;-71
2022/06/02 07:07:19;;;;;;;8.07;7.00;;;16.30;93.40;;;;;;2089615;28;20059;-68
2022/06/02 07:08:33;;;;;;;6.70;6.05;;;16.30;92.40;;;;;;2095389;28;20044;-70
2022/06/02 07:09:47;;;;;;;7.00;6.30;;;16.20;92.70;;;;;;2087428;28;20021;-71
2022/06/02 07:12:50;;;;;;;9.10;7.60;;;16.30;92.50;;;;;;2087450;28;20488;-69
2022/06/02 07:13:14;;;;;;;7.82;6.60;;;16.30;92.90;;;;;;2085588;28;20130;-69
2022/06/02 07:14:27;;;;;;;5.45;4.95;;;16.30;92.10;;;;;;2084080;28;20395;-71
2022/06/02 07:15:47;;;;;;;7.55;6.72;;;16.50;92.10;;;;;;2086803;28;20428;-70
2022/06/02 07:16:59;;;;;;;7.00;6.32;;;16.30;92.00;;;;;;2087403;28;20033;-70